LRBC/BCM METAR and TAF weather

Enter ICAO airport designator
Station Type Date Time Source
LRBC METAR 2019/02/17 16:00 UTC NOAA

LRBC 171600Z 00000KT CAVOK 10/06 Q1021


Station Type Date Time Source
LRBC Decoded METAR 2019/02/17 16:00 UTC NOAA

Bacau, Romania (LRBC) 46-35N 026-58E 190M
Feb 17, 2019 - 11:00 AM EST / 2019.02.17 1600 UTC
Wind: Calm:0
Visibility: greater than 7 mile(s):0
Temperature: 50 F (10 C)
Dew Point: 42 F (6 C)
Relative Humidity: 76%
Pressure (altimeter): 30.15 in. Hg (1021 hPa)
ob: LRBC 171600Z 00000KT CAVOK 10/06 Q1021
cycle: 16

Station Type Date Time Source
LRBC TAF 2010/08/31 20:30 UTC NOAA

TAF LRBC 312030Z 3121/0203 CNL


Example: see airport list